ΕΜΥ, Εθνική Μετεωρολογική Υπηρεσία - Δελτία Καιρού, Προγνώσεις

ΑΕΡΟΝΑΥΤΙΛΙΑ

GREEK AIRPORTS CODES

TAF LGLR 281100Z 2812/2821 09010KT 9999 FEW025 PROB30 TEMPO 2812/2818 3000 TSRA FEW018TCU SCT020 BKN080=

EUROPEAN AIRPORTS CODES

LFPO 281130Z 04006KT 340V080 9999 BKN046 19/08 Q1022 NOSIG=